createdAt,value
2023-09-23T00:00:26.702Z,68.30
2023-09-23T00:02:54.770Z,73.82
2023-09-23T00:05:21.710Z,71.28
2023-09-23T00:07:50.532Z,69.48
2023-09-23T00:10:17.281Z,68.64
2023-09-23T00:12:44.427Z,66.36
2023-09-23T00:15:13.595Z,69.14
2023-09-23T00:17:42.171Z,69.20
2023-09-23T00:20:16.197Z,68.41
2023-09-23T00:22:43.368Z,71.31
2023-09-23T00:25:10.830Z,66.54
2023-09-23T00:27:38.048Z,72.19
2023-09-23T00:30:06.267Z,69.50
2023-09-23T00:32:35.854Z,69.47
2023-09-23T00:35:03.098Z,69.64
2023-09-23T00:37:31.720Z,69.48
2023-09-23T00:39:58.448Z,69.49
2023-09-23T00:42:25.273Z,69.86
2023-09-23T00:44:51.974Z,69.53
2023-09-23T00:47:19.400Z,69.60
2023-09-23T00:49:47.697Z,69.65
2023-09-23T00:52:15.792Z,68.54
2023-09-23T00:54:47.172Z,67.79
2023-09-23T00:57:17.999Z,75.51
2023-09-23T00:59:44.614Z,70.87
2023-09-23T01:02:15.134Z,68.92
2023-09-23T01:04:42.035Z,71.50
2023-09-23T01:07:10.719Z,69.42
2023-09-23T01:09:38.501Z,69.25
2023-09-23T01:12:05.821Z,68.90
2023-09-23T01:14:32.918Z,69.16
2023-09-23T01:16:59.754Z,68.62
2023-09-23T01:19:28.029Z,68.71
2023-09-23T01:21:57.387Z,68.97
2023-09-23T01:24:26.420Z,68.96
2023-09-23T01:26:53.152Z,68.44
2023-09-23T01:29:23.425Z,69.16
2023-09-23T01:32:07.292Z,68.99
2023-09-23T01:34:35.790Z,68.39
2023-09-23T01:37:02.464Z,69.06
2023-09-23T01:39:30.449Z,69.06
2023-09-23T01:41:57.068Z,68.89
2023-09-23T01:44:23.778Z,68.89
2023-09-23T01:46:50.718Z,68.67
2023-09-23T01:49:17.575Z,68.12
2023-09-23T01:51:45.440Z,68.79
2023-09-23T01:54:12.594Z,65.14
2023-09-23T01:56:40.614Z,75.28
2023-09-23T01:59:07.276Z,72.88
2023-09-23T02:01:33.945Z,71.01
2023-09-23T02:04:00.613Z,69.73
2023-09-23T02:06:35.438Z,69.51
2023-09-23T02:09:02.103Z,69.16
2023-09-23T02:11:31.053Z,68.96
2023-09-23T02:13:59.139Z,69.61
2023-09-23T02:16:25.794Z,69.23
2023-09-23T02:18:52.473Z,68.93
2023-09-23T02:21:21.863Z,69.03
2023-09-23T02:23:48.571Z,68.45
2023-09-23T02:26:15.365Z,68.53
2023-09-23T02:28:42.371Z,68.29
2023-09-23T02:31:11.045Z,68.43
2023-09-23T02:33:37.958Z,69.16
2023-09-23T02:36:04.873Z,69.62
2023-09-23T02:38:32.233Z,69.84
2023-09-23T02:41:01.494Z,69.02
2023-09-23T02:43:28.161Z,69.54
2023-09-23T02:45:57.523Z,69.60
2023-09-23T02:48:25.949Z,69.61
2023-09-23T02:50:52.684Z,69.51
2023-09-23T02:53:19.343Z,69.23
2023-09-23T02:55:53.164Z,69.25
2023-09-23T02:58:20.057Z,69.81
2023-09-23T03:00:58.120Z,69.31
2023-09-23T03:03:26.337Z,69.65
2023-09-23T03:05:58.615Z,69.07
2023-09-23T03:08:25.612Z,69.16
2023-09-23T03:10:53.378Z,69.07
2023-09-23T03:13:20.248Z,68.41
2023-09-23T03:15:54.978Z,68.42
2023-09-23T03:18:43.102Z,68.95
2023-09-23T03:21:12.102Z,68.98
2023-09-23T03:23:41.192Z,68.94
2023-09-23T03:26:09.878Z,69.62
2023-09-23T03:28:37.392Z,69.87
2023-09-23T03:31:04.383Z,69.65
2023-09-23T03:33:31.246Z,69.73
2023-09-23T03:35:58.032Z,69.41
2023-09-23T03:38:27.555Z,68.87
2023-09-23T03:41:01.031Z,69.39
2023-09-23T03:43:28.175Z,69.21
2023-09-23T03:45:54.933Z,69.69
2023-09-23T03:48:22.027Z,69.70
2023-09-23T03:50:51.866Z,68.97
2023-09-23T03:53:22.329Z,69.58
2023-09-23T03:55:50.975Z,69.21
2023-09-23T03:58:20.725Z,69.42
2023-09-23T04:00:48.442Z,69.03
2023-09-23T04:03:16.055Z,69.63
2023-09-23T04:05:42.944Z,69.36
2023-09-23T04:08:09.601Z,69.75
2023-09-23T04:10:40.872Z,69.51
2023-09-23T04:13:11.093Z,69.11
2023-09-23T04:15:37.790Z,69.85
2023-09-23T04:18:04.709Z,69.73
2023-09-23T04:20:33.024Z,69.13
2023-09-23T04:22:59.695Z,69.19
2023-09-23T04:25:26.388Z,69.61
2023-09-23T04:27:53.451Z,69.50
2023-09-23T04:30:22.541Z,69.84
2023-09-23T04:32:49.237Z,69.38
2023-09-23T04:35:17.455Z,70.59
2023-09-23T04:37:44.310Z,69.60
2023-09-23T04:40:12.830Z,70.77
2023-09-23T04:42:40.536Z,70.55
2023-09-23T04:45:09.213Z,69.69
2023-09-23T04:47:38.015Z,69.48
2023-09-23T04:50:06.110Z,69.41
2023-09-23T04:52:32.990Z,69.18
2023-09-23T04:54:59.744Z,69.11
2023-09-23T04:57:26.578Z,69.34
2023-09-23T04:59:53.569Z,69.51
2023-09-23T05:02:20.614Z,70.08
2023-09-23T05:04:49.822Z,69.69
2023-09-23T05:07:16.917Z,69.68
2023-09-23T05:09:43.586Z,70.14
2023-09-23T05:12:10.987Z,69.99
2023-09-23T05:14:37.967Z,69.30
2023-09-23T05:17:05.837Z,69.72
2023-09-23T05:19:32.757Z,69.78
2023-09-23T05:22:00.958Z,69.50
2023-09-23T05:24:30.559Z,69.90
2023-09-23T05:26:57.438Z,70.03
2023-09-23T05:29:24.138Z,69.78
2023-09-23T05:31:50.917Z,69.70
2023-09-23T05:34:19.941Z,70.08
2023-09-23T05:36:49.380Z,69.52
2023-09-23T05:39:20.748Z,70.40
2023-09-23T05:41:48.536Z,70.07
2023-09-23T05:44:17.035Z,70.11
2023-09-23T05:46:44.192Z,69.73
2023-09-23T05:49:13.116Z,69.99
2023-09-23T05:51:39.991Z,70.43
2023-09-23T05:54:08.549Z,70.14
2023-09-23T05:56:36.607Z,70.04
2023-09-23T05:59:03.922Z,70.16
2023-09-23T06:01:31.113Z,70.03
2023-09-23T06:03:59.361Z,70.28
2023-09-23T06:06:26.157Z,70.45
2023-09-23T06:08:52.908Z,70.03
2023-09-23T06:11:19.576Z,70.32
2023-09-23T06:13:47.828Z,69.70
2023-09-23T06:16:17.581Z,69.76
2023-09-23T06:18:44.381Z,70.21
2023-09-23T06:21:11.078Z,70.65
2023-09-23T06:23:37.711Z,70.90
2023-09-23T06:26:07.025Z,70.89
2023-09-23T06:28:34.725Z,70.79
2023-09-23T06:31:02.866Z,70.42
2023-09-23T06:33:29.982Z,70.65
2023-09-23T06:35:56.852Z,70.62
2023-09-23T06:38:23.528Z,70.81
2023-09-23T06:40:55.900Z,70.72
2023-09-23T06:43:22.630Z,70.37
2023-09-23T06:45:54.366Z,70.49
2023-09-23T06:48:22.833Z,70.59
2023-09-23T06:50:56.601Z,71.17
2023-09-23T06:53:23.328Z,70.99
2023-09-23T06:55:50.031Z,71.31
2023-09-23T06:58:16.673Z,70.83
2023-09-23T07:00:43.339Z,70.83
2023-09-23T07:03:10.103Z,70.56
2023-09-23T07:05:38.495Z,70.38
2023-09-23T07:08:05.424Z,71.32
2023-09-23T07:10:35.531Z,70.80
2023-09-23T07:13:02.493Z,70.25
2023-09-23T07:15:29.545Z,70.14
2023-09-23T07:17:56.256Z,70.08
2023-09-23T07:20:23.071Z,73.30
2023-09-23T07:22:51.170Z,71.01
2023-09-23T07:25:17.863Z,70.37
2023-09-23T07:27:44.544Z,70.12
2023-09-23T07:30:12.200Z,70.94
2023-09-23T07:32:39.049Z,71.14
2023-09-23T07:35:07.067Z,70.63
2023-09-23T07:37:33.761Z,70.42
2023-09-23T07:40:01.834Z,71.17
2023-09-23T07:42:28.486Z,71.01
2023-09-23T07:44:55.331Z,71.07
2023-09-23T07:47:22.146Z,70.97
2023-09-23T07:49:49.082Z,71.28
2023-09-23T07:52:16.014Z,70.80
2023-09-23T07:54:42.788Z,70.85
2023-09-23T07:57:10.762Z,70.19
2023-09-23T07:59:37.448Z,70.38
2023-09-23T08:02:04.538Z,70.74
2023-09-23T08:04:31.783Z,70.73
2023-09-23T08:06:58.509Z,71.37
2023-09-23T08:09:25.166Z,71.22
2023-09-23T08:11:51.805Z,70.85
2023-09-23T08:14:19.983Z,70.95
2023-09-23T08:16:46.759Z,71.07
2023-09-23T08:19:13.402Z,70.80
2023-09-23T08:21:40.052Z,70.89
2023-09-23T08:24:06.937Z,71.10
2023-09-23T08:26:33.649Z,71.12
2023-09-23T08:29:00.400Z,71.35
2023-09-23T08:31:28.452Z,71.24
2023-09-23T08:33:55.818Z,71.30
2023-09-23T08:36:22.623Z,71.19
2023-09-23T08:38:49.301Z,70.76
2023-09-23T08:41:17.558Z,69.69
2023-09-23T08:43:45.139Z,69.86
2023-09-23T08:46:12.957Z,69.82
2023-09-23T08:48:43.312Z,69.29
2023-09-23T08:51:12.903Z,72.49
2023-09-23T08:53:40.731Z,71.57
2023-09-23T08:56:09.401Z,71.28
2023-09-23T08:58:36.185Z,69.94
2023-09-23T09:01:03.269Z,69.17
2023-09-23T09:03:31.533Z,68.54
2023-09-23T09:06:00.332Z,69.48
2023-09-23T09:08:27.427Z,68.93
2023-09-23T09:10:58.751Z,68.79
2023-09-23T09:13:25.453Z,68.55
2023-09-23T09:15:52.249Z,67.87
2023-09-23T09:18:18.966Z,68.78
2023-09-23T09:20:46.269Z,68.65
2023-09-23T09:23:18.203Z,67.57
2023-09-23T09:25:48.681Z,67.27
2023-09-23T09:28:18.142Z,67.60
2023-09-23T09:30:45.286Z,67.01
2023-09-23T09:33:14.473Z,67.24
2023-09-23T09:35:41.272Z,67.48
2023-09-23T09:38:17.537Z,67.28
2023-09-23T09:40:47.331Z,68.98
2023-09-23T09:43:14.725Z,67.74
2023-09-23T09:45:44.028Z,68.33
2023-09-23T09:48:13.528Z,67.76
2023-09-23T09:50:40.290Z,67.46
2023-09-23T09:53:07.620Z,72.93
2023-09-23T09:55:34.737Z,71.70
2023-09-23T09:58:02.933Z,72.62
2023-09-23T10:00:30.018Z,71.19
2023-09-23T10:03:01.483Z,72.66
2023-09-23T10:05:42.654Z,73.11
2023-09-23T10:08:14.130Z,70.74
2023-09-23T10:10:47.600Z,69.16
2023-09-23T10:13:18.060Z,70.21
2023-09-23T10:15:44.994Z,69.65
2023-09-23T10:18:12.923Z,74.45
2023-09-23T10:20:43.591Z,72.92
2023-09-23T10:23:11.813Z,71.00
2023-09-23T10:25:45.384Z,71.50
2023-09-23T10:28:24.589Z,71.32
2023-09-23T10:30:58.908Z,71.13
2023-09-23T10:33:27.486Z,72.35
2023-09-23T10:35:54.697Z,69.02
2023-09-23T10:38:23.083Z,69.21
2023-09-23T10:40:51.676Z,69.19
2023-09-23T10:43:18.697Z,69.15
2023-09-23T10:45:46.788Z,69.80
2023-09-23T10:48:15.527Z,71.78
2023-09-23T10:50:42.831Z,70.57
2023-09-23T10:53:09.650Z,70.75
2023-09-23T10:55:36.989Z,68.59
2023-09-23T10:58:05.383Z,69.25
2023-09-23T11:00:34.680Z,69.26
2023-09-23T11:03:08.352Z,69.27
2023-09-23T11:05:38.461Z,68.42
2023-09-23T11:08:06.733Z,69.11
2023-09-23T11:10:34.353Z,69.89
2023-09-23T11:13:01.131Z,68.83
2023-09-23T11:15:30.173Z,68.39
2023-09-23T11:17:57.120Z,67.05
2023-09-23T11:20:32.807Z,67.21
2023-09-23T11:23:03.406Z,67.97
2023-09-23T11:25:30.415Z,69.60
2023-09-23T11:28:03.612Z,67.51
2023-09-23T11:30:30.932Z,67.80
2023-09-23T11:32:57.862Z,68.79
2023-09-23T11:35:25.009Z,68.38
2023-09-23T11:37:55.384Z,68.24
2023-09-23T11:40:24.216Z,68.23
2023-09-23T11:42:51.494Z,66.32
2023-09-23T11:45:18.836Z,67.53
2023-09-23T11:47:45.601Z,67.69
2023-09-23T11:50:13.562Z,67.80
2023-09-23T11:52:40.257Z,67.42
2023-09-23T11:55:11.309Z,67.64
2023-09-23T11:57:37.980Z,66.42
2023-09-23T12:00:05.761Z,67.39
2023-09-23T12:02:32.630Z,68.00
2023-09-23T12:04:59.639Z,67.85
2023-09-23T12:07:26.742Z,67.41
2023-09-23T12:09:54.112Z,66.48
2023-09-23T12:12:22.081Z,66.45
2023-09-23T12:14:49.764Z,67.82
2023-09-23T12:17:17.285Z,67.83
2023-09-23T12:19:46.597Z,67.10
2023-09-23T12:22:13.984Z,67.76
2023-09-23T12:24:40.752Z,67.12
2023-09-23T12:27:07.417Z,67.93
2023-09-23T12:29:35.847Z,67.33
2023-09-23T12:32:02.702Z,67.64
2023-09-23T12:34:30.133Z,66.95
2023-09-23T12:36:56.892Z,65.73
2023-09-23T12:39:23.954Z,65.13
2023-09-23T12:41:50.932Z,66.37
2023-09-23T12:44:18.060Z,65.90
2023-09-23T12:46:46.243Z,66.43
2023-09-23T12:49:12.981Z,66.58
2023-09-23T12:51:40.322Z,65.76
2023-09-23T12:54:08.446Z,68.05
2023-09-23T12:56:35.468Z,64.73
2023-09-23T12:59:02.276Z,66.34
2023-09-23T13:01:29.232Z,66.32
2023-09-23T13:03:57.342Z,68.27
2023-09-23T13:06:24.378Z,64.46
2023-09-23T13:08:51.046Z,61.67
2023-09-23T13:11:17.847Z,64.61
2023-09-23T13:13:51.153Z,64.74
2023-09-23T13:16:18.424Z,64.53
2023-09-23T13:18:45.470Z,64.77
2023-09-23T13:21:13.794Z,67.62
2023-09-23T13:23:40.690Z,63.72
2023-09-23T13:26:07.929Z,62.59
2023-09-23T13:28:38.037Z,69.09
2023-09-23T13:31:05.421Z,65.36
2023-09-23T13:33:32.221Z,63.74
2023-09-23T13:35:59.092Z,65.54
2023-09-23T13:38:27.231Z,63.58
2023-09-23T13:40:53.946Z,67.63
2023-09-23T13:43:20.763Z,63.27
2023-09-23T13:45:47.882Z,64.06
2023-09-23T13:48:14.869Z,62.15
2023-09-23T13:50:41.766Z,61.73
2023-09-23T13:53:08.730Z,69.59
2023-09-23T13:55:36.723Z,70.28
2023-09-23T13:58:03.503Z,70.91
2023-09-23T14:00:30.439Z,70.86
2023-09-23T14:03:00.149Z,69.91
2023-09-23T14:05:28.037Z,69.03
2023-09-23T14:07:54.980Z,71.46
2023-09-23T14:10:22.656Z,71.00
2023-09-23T14:12:51.300Z,71.50
2023-09-23T14:15:18.495Z,71.48
2023-09-23T14:17:47.400Z,70.42
2023-09-23T14:20:14.934Z,71.13
2023-09-23T14:22:46.562Z,70.88
2023-09-23T14:25:13.704Z,63.60
2023-09-23T14:27:40.854Z,63.12
2023-09-23T14:30:11.017Z,65.84
2023-09-23T14:32:39.007Z,63.67
2023-09-23T14:35:06.964Z,67.86
2023-09-23T14:37:34.159Z,70.81
2023-09-23T14:40:01.548Z,66.37
2023-09-23T14:42:28.620Z,69.18
2023-09-23T14:44:55.315Z,69.44
2023-09-23T14:47:23.680Z,61.36
2023-09-23T14:49:50.573Z,60.01
2023-09-23T14:52:17.206Z,70.53
2023-09-23T14:54:44.072Z,70.77
2023-09-23T14:57:10.828Z,68.34
2023-09-23T14:59:38.180Z,70.84
2023-09-23T15:02:05.145Z,71.40
2023-09-23T15:04:34.039Z,71.91
2023-09-23T15:07:00.890Z,71.62
2023-09-23T15:09:28.060Z,71.69
2023-09-23T15:11:54.903Z,66.15
2023-09-23T15:14:21.831Z,71.67
2023-09-23T15:16:50.732Z,71.91
2023-09-23T15:19:19.451Z,71.89
2023-09-23T15:21:47.908Z,72.19
2023-09-23T15:24:18.134Z,71.43
2023-09-23T15:26:45.358Z,71.94
2023-09-23T15:29:12.328Z,71.72
2023-09-23T15:31:39.212Z,71.67
2023-09-23T15:34:06.330Z,72.11
2023-09-23T15:36:33.317Z,71.63
2023-09-23T15:39:01.455Z,71.87
2023-09-23T15:41:28.225Z,72.24
2023-09-23T15:43:55.451Z,72.33
2023-09-23T15:46:22.215Z,72.06
2023-09-23T15:48:49.112Z,71.81
2023-09-23T15:51:16.228Z,72.19
2023-09-23T15:53:43.878Z,72.06
2023-09-23T15:56:13.025Z,72.16
2023-09-23T15:58:40.226Z,72.13
2023-09-23T16:01:07.131Z,71.72
2023-09-23T16:03:34.404Z,71.79
2023-09-23T16:06:01.638Z,71.59
2023-09-23T16:08:28.370Z,71.97
2023-09-23T16:10:55.108Z,71.61
2023-09-23T16:13:23.310Z,71.80
2023-09-23T16:15:50.085Z,72.03
2023-09-23T16:18:19.907Z,72.37
2023-09-23T16:20:48.646Z,71.66
2023-09-23T16:23:15.461Z,71.89
2023-09-23T16:25:42.363Z,72.23
2023-09-23T16:28:08.996Z,71.78
2023-09-23T16:30:37.134Z,72.13
2023-09-23T16:33:04.702Z,72.04
2023-09-23T16:35:31.547Z,71.88
2023-09-23T16:37:58.325Z,72.30
2023-09-23T16:40:25.113Z,71.98
2023-09-23T16:42:51.956Z,72.51
2023-09-23T16:45:19.006Z,72.04
2023-09-23T16:47:47.251Z,72.43
2023-09-23T16:50:14.064Z,72.39
2023-09-23T16:52:41.283Z,72.26
2023-09-23T16:55:09.365Z,72.05
2023-09-23T16:57:36.530Z,72.30
2023-09-23T17:00:04.405Z,71.91
2023-09-23T17:02:31.410Z,72.04
2023-09-23T17:05:00.291Z,71.95
2023-09-23T17:07:27.187Z,72.11
2023-09-23T17:09:54.340Z,72.08
2023-09-23T17:12:21.249Z,71.72
2023-09-23T17:14:48.764Z,71.71
2023-09-23T17:17:15.525Z,72.25
2023-09-23T17:19:42.859Z,71.76
2023-09-23T17:22:11.022Z,72.04
2023-09-23T17:24:38.018Z,72.15
2023-09-23T17:27:05.522Z,72.14
2023-09-23T17:29:33.514Z,71.98
2023-09-23T17:32:00.338Z,71.83
2023-09-23T17:34:27.151Z,71.82
2023-09-23T17:36:53.972Z,72.07
2023-09-23T17:39:23.676Z,71.63
2023-09-23T17:41:50.674Z,72.11
2023-09-23T17:44:18.212Z,71.98
2023-09-23T17:46:46.502Z,71.54
2023-09-23T17:49:13.948Z,71.67
2023-09-23T17:51:40.854Z,71.60
2023-09-23T17:54:07.627Z,71.85
2023-09-23T17:56:35.928Z,72.16
2023-09-23T17:59:02.838Z,71.35
2023-09-23T18:01:29.756Z,71.63
2023-09-23T18:03:59.696Z,71.12
2023-09-23T18:06:27.128Z,71.10
2023-09-23T18:08:53.794Z,70.53
2023-09-23T18:11:21.795Z,70.60
2023-09-23T18:13:49.809Z,70.50
2023-09-23T18:16:16.716Z,70.31
2023-09-23T18:18:47.093Z,70.16
2023-09-23T18:21:15.103Z,70.35
2023-09-23T18:23:45.339Z,70.27
2023-09-23T18:26:13.966Z,70.16
2023-09-23T18:28:41.379Z,70.46
2023-09-23T18:31:09.346Z,70.66
2023-09-23T18:33:36.308Z,70.25
2023-09-23T18:36:03.557Z,70.78
2023-09-23T18:38:30.343Z,70.32
2023-09-23T18:40:57.002Z,70.53
2023-09-23T18:43:23.951Z,70.64
2023-09-23T18:45:51.351Z,70.78
2023-09-23T18:48:27.912Z,70.50
2023-09-23T18:50:56.383Z,70.77
2023-09-23T18:53:23.234Z,70.47
2023-09-23T18:55:50.011Z,70.91
2023-09-23T18:58:17.486Z,70.72
2023-09-23T19:00:44.975Z,70.68
2023-09-23T19:03:11.957Z,70.93
2023-09-23T19:05:40.159Z,70.29
2023-09-23T19:08:07.358Z,70.18
2023-09-23T19:10:34.396Z,70.85
2023-09-23T19:13:01.666Z,70.37
2023-09-23T19:15:28.538Z,70.60
2023-09-23T19:17:56.774Z,70.41
2023-09-23T19:20:24.263Z,70.38
2023-09-23T19:22:52.574Z,70.60
2023-09-23T19:25:19.178Z,70.79
2023-09-23T19:27:46.553Z,70.69
2023-09-23T19:30:14.432Z,70.11
2023-09-23T19:32:41.710Z,70.46
2023-09-23T19:35:10.052Z,70.30
2023-09-23T19:37:37.886Z,70.50
2023-09-23T19:40:07.705Z,70.24
2023-09-23T19:42:37.365Z,70.52
2023-09-23T19:45:05.170Z,70.61
2023-09-23T19:47:32.477Z,70.69
2023-09-23T19:50:00.973Z,70.44
2023-09-23T19:52:30.449Z,70.40
2023-09-23T19:54:57.830Z,70.27
2023-09-23T19:57:26.452Z,70.43
2023-09-23T19:59:53.793Z,70.50
2023-09-23T20:02:20.777Z,70.62
2023-09-23T20:04:47.668Z,70.38
2023-09-23T20:07:14.928Z,70.57
2023-09-23T20:09:41.843Z,70.21
2023-09-23T20:12:08.811Z,69.89
2023-09-23T20:14:38.481Z,70.23
2023-09-23T20:17:05.608Z,70.27
2023-09-23T20:19:32.315Z,70.20
2023-09-23T20:21:58.949Z,69.90
2023-09-23T20:24:25.818Z,70.41
2023-09-23T20:26:54.150Z,69.87
2023-09-23T20:29:20.982Z,69.95
2023-09-23T20:31:49.996Z,70.00
2023-09-23T20:34:17.851Z,69.80
2023-09-23T20:36:45.482Z,70.07
2023-09-23T20:39:12.555Z,69.72
2023-09-23T20:41:39.418Z,69.23
2023-09-23T20:44:06.728Z,69.51
2023-09-23T20:46:33.905Z,69.43
2023-09-23T20:49:02.462Z,69.60
2023-09-23T20:51:29.542Z,69.71
2023-09-23T20:53:56.918Z,69.35
2023-09-23T20:56:23.997Z,69.46
2023-09-23T20:58:51.097Z,69.35
2023-09-23T21:01:17.837Z,69.20
2023-09-23T21:03:44.876Z,69.72
2023-09-23T21:06:13.114Z,69.58
2023-09-23T21:08:39.823Z,69.24
2023-09-23T21:11:06.522Z,69.39
2023-09-23T21:13:33.229Z,69.47
2023-09-23T21:16:00.649Z,69.61
2023-09-23T21:18:27.352Z,69.68
2023-09-23T21:20:54.051Z,69.32
2023-09-23T21:23:22.130Z,69.71
2023-09-23T21:25:50.079Z,69.18
2023-09-23T21:28:17.401Z,70.22
2023-09-23T21:30:44.047Z,69.68
2023-09-23T21:33:11.085Z,70.05
2023-09-23T21:35:40.385Z,69.63
2023-09-23T21:38:07.521Z,70.17
2023-09-23T21:40:39.159Z,70.00
2023-09-23T21:43:05.824Z,67.36
2023-09-23T21:45:32.513Z,69.92
2023-09-23T21:47:59.512Z,69.98
2023-09-23T21:50:26.477Z,70.02
2023-09-23T21:52:53.152Z,69.63
2023-09-23T21:55:19.806Z,69.90
2023-09-23T21:57:49.082Z,69.63
2023-09-23T22:00:28.792Z,69.50
2023-09-23T22:02:57.220Z,68.07
2023-09-23T22:05:24.436Z,72.96
2023-09-23T22:07:53.904Z,73.02
2023-09-23T22:10:20.521Z,70.62
2023-09-23T22:12:47.240Z,69.76
2023-09-23T22:15:15.734Z,70.02
2023-09-23T22:17:43.514Z,70.30
2023-09-23T22:20:11.936Z,69.96
2023-09-23T22:22:39.527Z,70.27
2023-09-23T22:25:12.570Z,69.69
2023-09-23T22:27:39.355Z,69.73
2023-09-23T22:30:07.659Z,69.62
2023-09-23T22:32:35.724Z,69.76
2023-09-23T22:35:03.957Z,70.42
2023-09-23T22:37:30.793Z,70.11
2023-09-23T22:40:02.996Z,70.34
2023-09-23T22:42:30.188Z,69.76
2023-09-23T22:44:56.982Z,70.12
2023-09-23T22:47:23.854Z,70.04
2023-09-23T22:49:51.973Z,70.06
2023-09-23T22:52:18.806Z,69.91
2023-09-23T22:54:45.437Z,69.49
2023-09-23T22:57:12.061Z,70.15
2023-09-23T22:59:39.085Z,69.92
2023-09-23T23:02:05.807Z,69.69
2023-09-23T23:04:32.529Z,70.14
2023-09-23T23:07:00.608Z,70.09
2023-09-23T23:09:28.031Z,69.55
2023-09-23T23:11:54.888Z,69.51
2023-09-23T23:14:21.627Z,70.24
2023-09-23T23:16:48.790Z,69.85
2023-09-23T23:19:15.434Z,70.27
2023-09-23T23:21:42.067Z,70.66
2023-09-23T23:24:10.937Z,70.31
2023-09-23T23:26:38.085Z,69.85
2023-09-23T23:29:04.983Z,69.95
2023-09-23T23:31:31.937Z,70.14
2023-09-23T23:33:58.566Z,69.59
2023-09-23T23:36:25.432Z,70.19
2023-09-23T23:38:52.147Z,70.43
2023-09-23T23:41:20.142Z,70.13
2023-09-23T23:43:47.270Z,69.74
2023-09-23T23:46:16.317Z,70.31
2023-09-23T23:48:44.663Z,70.02
2023-09-23T23:51:11.595Z,70.15
2023-09-23T23:53:39.071Z,70.38
2023-09-23T23:56:13.898Z,69.87
2023-09-23T23:58:42.252Z,70.18
